Time;durP1;ratioP1;P1;durP2;ratioP2;P2;SDS_P1;SDS_P2;PMS_P1;PMS_P2;Temp;Humidity;BMP_temperature;BMP_pressure;BME280_temperature;BME280_humidity;BME280_pressure;Samples;Min_cycle;Max_cycle;Signal;HPM_P1;HPM_P2
2021/07/25 04:00:56;;;;;;;29.93;25.90;;;19.50;99.90;;;;;;5676925;23;20533;-67
2021/07/25 04:03:22;;;;;;;29.67;26.10;;;19.50;99.90;;;;;;4934592;29;20501;-67
2021/07/25 04:05:49;;;;;;;30.77;25.43;;;19.50;99.90;;;;;;4934412;29;20540;-67
2021/07/25 04:08:16;;;;;;;27.83;24.93;;;19.60;99.90;;;;;;4934819;29;21003;-67
2021/07/25 04:10:43;;;;;;;32.87;25.50;;;19.60;99.90;;;;;;4929380;29;20574;-67
2021/07/25 04:13:11;;;;;;;31.07;26.30;;;19.50;99.90;;;;;;4915327;29;20470;-67
2021/07/25 04:15:39;;;;;;;31.53;26.10;;;19.50;99.90;;;;;;4917246;29;20533;-71
2021/07/25 04:18:07;;;;;;;31.13;26.30;;;19.60;99.90;;;;;;4916462;29;20614;-67
2021/07/25 04:20:34;;;;;;;29.37;26.13;;;19.60;99.90;;;;;;4915271;29;20541;-67
2021/07/25 04:23:02;;;;;;;27.67;24.70;;;19.60;99.90;;;;;;4917604;29;20620;-67
2021/07/25 04:25:29;;;;;;;28.83;25.70;;;19.60;99.90;;;;;;4916153;29;20466;-68
2021/07/25 04:27:56;;;;;;;29.27;25.47;;;19.60;99.90;;;;;;4916552;29;20954;-67
2021/07/25 04:30:24;;;;;;;31.03;25.30;;;19.60;99.90;;;;;;4916091;29;20475;-68
2021/07/25 04:32:52;;;;;;;31.03;26.40;;;19.60;99.90;;;;;;4914994;29;20466;-69
2021/07/25 04:35:21;;;;;;;29.00;24.57;;;19.60;99.90;;;;;;4914452;29;20502;-67
2021/07/25 04:37:51;;;;;;;28.67;25.00;;;19.60;99.90;;;;;;4914887;29;20490;-68
2021/07/25 04:40:19;;;;;;;33.40;26.87;;;19.70;99.90;;;;;;4916529;29;20477;-68
2021/07/25 04:42:50;;;;;;;29.90;24.60;;;19.80;99.90;;;;;;4916761;29;20474;-68
2021/07/25 04:45:21;;;;;;;29.57;25.67;;;19.90;99.90;;;;;;4911239;29;20490;-69
2021/07/25 04:47:53;;;;;;;29.90;26.10;;;19.90;99.90;;;;;;4916826;29;20467;-70
2021/07/25 04:50:29;;;;;;;34.87;26.20;;;19.90;99.90;;;;;;4916472;29;20525;-69
2021/07/25 04:53:01;;;;;;;42.07;26.50;;;19.90;99.90;;;;;;4916346;29;20494;-70
2021/07/25 04:55:33;;;;;;;31.83;24.63;;;19.90;99.90;;;;;;4914869;29;20625;-69
2021/07/25 04:58:04;;;;;;;32.50;27.37;;;19.80;99.90;;;;;;4917417;29;20495;-70
2021/07/25 05:00:31;;;;;;;32.03;25.47;;;19.80;99.90;;;;;;4914683;29;20494;-68
2021/07/25 05:03:03;;;;;;;36.87;26.60;;;19.80;99.90;;;;;;4915601;29;20467;-70
2021/07/25 05:05:33;;;;;;;31.83;26.20;;;19.80;99.90;;;;;;4916026;29;20522;-70
2021/07/25 05:08:02;;;;;;;34.20;27.37;;;19.80;99.90;;;;;;4917701;29;20913;-70
2021/07/25 05:10:30;;;;;;;32.67;25.53;;;19.80;99.90;;;;;;4914096;29;20577;-69
2021/07/25 05:13:03;;;;;;;31.20;26.37;;;19.80;99.90;;;;;;4916001;29;20900;-68
2021/07/25 05:15:32;;;;;;;33.20;26.30;;;19.70;99.90;;;;;;4916567;29;20470;-69
2021/07/25 05:18:04;;;;;;;31.90;26.20;;;19.80;99.90;;;;;;4915544;29;20577;-68
2021/07/25 05:20:35;;;;;;;35.43;28.43;;;19.80;99.90;;;;;;4915097;29;20498;-69
2021/07/25 05:23:03;;;;;;;32.27;25.80;;;19.80;99.90;;;;;;4915887;29;20498;-69
2021/07/25 05:25:32;;;;;;;31.43;26.10;;;19.90;99.90;;;;;;4916351;29;20473;-69
2021/07/25 05:28:02;;;;;;;31.20;25.57;;;19.90;99.90;;;;;;4915045;29;20483;-71
2021/07/25 05:30:30;;;;;;;27.70;24.70;;;20.10;99.90;;;;;;4916539;29;20482;-70
2021/07/25 05:32:57;;;;;;;26.80;23.90;;;20.50;99.90;;;;;;4913692;29;20884;-70
2021/07/25 05:35:24;;;;;;;29.77;24.50;;;20.90;99.90;;;;;;4914889;29;20474;-69
2021/07/25 05:37:52;;;;;;;26.17;23.33;;;21.20;99.90;;;;;;4914806;29;20490;-70
2021/07/25 05:40:19;;;;;;;24.37;22.00;;;21.30;99.90;;;;;;4916397;29;20801;-70
2021/07/25 05:42:45;;;;;;;25.27;22.57;;;21.30;99.90;;;;;;4915639;29;20871;-70
2021/07/25 05:45:14;;;;;;;29.43;23.77;;;21.30;99.90;;;;;;4915732;29;20526;-71
2021/07/25 05:47:41;;;;;;;27.37;23.13;;;21.30;99.90;;;;;;4914890;29;20466;-71
2021/07/25 05:50:09;;;;;;;27.93;25.00;;;21.20;99.90;;;;;;4915218;29;20466;-70
2021/07/25 05:52:48;;;;;;;25.50;22.80;;;21.30;99.90;;;;;;4915909;29;21000;-71
2021/07/25 05:55:18;;;;;;;26.93;24.17;;;21.30;99.90;;;;;;4915617;29;20561;-71
2021/07/25 05:57:45;;;;;;;27.40;24.50;;;21.20;99.90;;;;;;4915403;29;20566;-71
2021/07/25 06:00:13;;;;;;;28.80;23.43;;;21.20;99.90;;;;;;4914937;29;20471;-66
2021/07/25 06:02:58;;;;;;;29.17;25.97;;;21.20;99.90;;;;;;4913675;29;20557;-71
2021/07/25 06:05:26;;;;;;;24.63;22.03;;;21.20;99.90;;;;;;4914209;29;20545;-69
2021/07/25 06:07:53;;;;;;;27.03;24.30;;;21.30;99.90;;;;;;4915722;29;20530;-70
2021/07/25 06:10:24;;;;;;;27.83;24.77;;;21.40;99.90;;;;;;4914566;29;20541;-70
2021/07/25 06:12:52;;;;;;;26.60;23.70;;;21.60;99.90;;;;;;4916112;29;20475;-69
2021/07/25 06:15:19;;;;;;;25.17;22.57;;;22.20;99.90;;;;;;4914146;29;21019;-70
2021/07/25 06:17:45;;;;;;;24.93;22.30;;;22.70;99.90;;;;;;4913055;29;20491;-69
2021/07/25 06:20:13;;;;;;;23.43;21.30;;;23.20;99.90;;;;;;4915482;29;20467;-69
2021/07/25 06:22:45;;;;;;;26.43;23.87;;;23.60;99.90;;;;;;4909612;29;20546;-70
2021/07/25 06:25:14;;;;;;;24.13;21.83;;;23.40;99.90;;;;;;4911040;29;20477;-67
2021/07/25 06:27:42;;;;;;;25.63;22.97;;;23.00;99.90;;;;;;4916094;29;20469;-67
2021/07/25 06:30:10;;;;;;;25.47;23.03;;;22.80;99.90;;;;;;4915189;29;20454;-68
2021/07/25 06:32:56;;;;;;;24.27;21.80;;;22.70;99.90;;;;;;4913049;29;20569;-67
2021/07/25 06:35:25;;;;;;;23.50;21.10;;;22.80;99.90;;;;;;4904778;29;20815;-69
2021/07/25 06:37:52;;;;;;;22.33;20.37;;;22.90;99.90;;;;;;4915888;29;20486;-67
2021/07/25 06:40:19;;;;;;;24.27;21.97;;;23.00;99.90;;;;;;4914774;29;20481;-67
2021/07/25 06:42:47;;;;;;;23.53;21.03;;;23.10;99.90;;;;;;4914441;29;20478;-69
2021/07/25 06:45:14;;;;;;;23.73;21.03;;;23.00;99.90;;;;;;4916544;29;20459;-69
2021/07/25 06:47:42;;;;;;;23.50;21.20;;;22.90;99.90;;;;;;4914906;29;20475;-69
2021/07/25 06:50:09;;;;;;;22.37;19.77;;;22.70;99.90;;;;;;4915408;29;20472;-69
2021/07/25 06:52:39;;;;;;;23.13;20.63;;;22.70;99.90;;;;;;4914015;29;20471;-69
2021/07/25 06:55:07;;;;;;;25.33;22.70;;;22.70;99.90;;;;;;4916402;29;20817;-69
2021/07/25 06:57:34;;;;;;;23.60;21.10;;;22.80;99.90;;;;;;4918005;29;20493;-70
2021/07/25 07:00:02;;;;;;;24.45;22.20;;;23.00;99.90;;;;;;4917593;29;20466;-69
2021/07/25 07:02:28;;;;;;;23.63;21.47;;;23.20;99.90;;;;;;4914294;29;20238;-69
2021/07/25 07:04:56;;;;;;;23.03;20.83;;;23.30;99.90;;;;;;4914261;29;20485;-69
2021/07/25 07:07:22;;;;;;;22.23;19.83;;;23.30;99.90;;;;;;4916914;29;20561;-70
2021/07/25 07:09:49;;;;;;;22.70;20.80;;;23.50;99.90;;;;;;4917253;29;20466;-69
2021/07/25 07:12:15;;;;;;;23.10;20.97;;;23.50;99.90;;;;;;4911222;29;20925;-69
2021/07/25 07:14:42;;;;;;;21.17;19.17;;;23.50;99.90;;;;;;4916352;29;20486;-70
2021/07/25 07:17:10;;;;;;;22.37;20.37;;;23.60;99.90;;;;;;4916909;29;20471;-68
2021/07/25 07:19:37;;;;;;;22.53;20.33;;;23.70;99.90;;;;;;4917767;29;20534;-70
2021/07/25 07:22:04;;;;;;;20.67;18.70;;;23.70;99.90;;;;;;4917901;29;20482;-69
2021/07/25 07:24:30;;;;;;;22.07;19.97;;;23.70;99.90;;;;;;4917830;29;20573;-69
2021/07/25 07:26:57;;;;;;;20.43;18.43;;;23.70;99.90;;;;;;4918733;29;20466;-70
2021/07/25 07:29:23;;;;;;;20.57;18.63;;;23.70;99.90;;;;;;4917628;29;20526;-69
2021/07/25 07:31:50;;;;;;;19.93;18.10;;;23.80;99.90;;;;;;4914676;29;22162;-67
2021/07/25 07:34:18;;;;;;;21.40;19.20;;;23.90;99.90;;;;;;4910347;29;20881;-69
2021/07/25 07:36:45;;;;;;;21.57;19.47;;;23.90;99.90;;;;;;4899002;29;20471;-69
2021/07/25 07:39:11;;;;;;;20.03;17.90;;;23.90;99.90;;;;;;4910332;29;20545;-69
2021/07/25 07:41:38;;;;;;;19.83;18.00;;;24.10;99.90;;;;;;4918107;29;20852;-69
2021/07/25 07:44:05;;;;;;;20.17;18.07;;;24.20;99.90;;;;;;4916884;29;20466;-69
2021/07/25 07:46:31;;;;;;;21.17;19.10;;;24.10;99.90;;;;;;4918240;29;20526;-68
2021/07/25 07:48:58;;;;;;;20.10;18.30;;;23.90;99.90;;;;;;4917688;29;20463;-67
2021/07/25 07:51:26;;;;;;;25.47;22.83;;;23.90;99.90;;;;;;4917348;29;20542;-68
2021/07/25 07:53:53;;;;;;;20.57;18.57;;;23.90;99.90;;;;;;4916651;29;20469;-68
2021/07/25 07:56:19;;;;;;;19.17;17.37;;;24.10;99.90;;;;;;4917503;29;20884;-68
2021/07/25 07:58:46;;;;;;;18.53;16.83;;;24.30;99.90;;;;;;4916908;29;20490;-68
2021/07/25 08:01:12;;;;;;;18.57;16.67;;;24.40;99.90;;;;;;4912771;29;20551;-68
2021/07/25 08:03:39;;;;;;;18.70;17.00;;;24.50;99.90;;;;;;4910492;29;20834;-67
2021/07/25 08:06:06;;;;;;;19.00;17.27;;;24.60;99.90;;;;;;4916737;29;20467;-67
2021/07/25 08:08:34;;;;;;;16.80;15.30;;;24.70;99.90;;;;;;4917537;29;20489;-67
2021/07/25 08:11:00;;;;;;;17.87;16.37;;;25.00;99.90;;;;;;4917270;29;20566;-67
2021/07/25 08:13:27;;;;;;;18.40;16.63;;;25.40;99.90;;;;;;4916712;29;20477;-67
2021/07/25 08:15:54;;;;;;;17.77;16.23;;;25.70;99.90;;;;;;4916734;29;20533;-69
2021/07/25 08:18:20;;;;;;;17.73;16.03;;;25.90;99.90;;;;;;4916479;29;20489;-68
2021/07/25 08:20:47;;;;;;;17.70;16.10;;;26.00;99.90;;;;;;4916281;29;20980;-67
2021/07/25 08:23:14;;;;;;;16.70;15.30;;;26.10;99.90;;;;;;4916817;29;20496;-68
2021/07/25 08:25:42;;;;;;;18.47;16.93;;;26.20;99.90;;;;;;4917057;29;20483;-69
2021/07/25 08:28:08;;;;;;;17.77;16.17;;;26.40;99.90;;;;;;4917207;29;20473;-69
2021/07/25 08:30:35;;;;;;;17.50;16.00;;;26.50;99.90;;;;;;4916875;29;20560;-70
2021/07/25 08:33:03;;;;;;;18.13;16.57;;;26.80;99.90;;;;;;4914899;29;20474;-68
2021/07/25 08:35:30;;;;;;;16.70;15.40;;;27.00;99.90;;;;;;4916696;29;20468;-68
2021/07/25 08:37:56;;;;;;;19.00;17.37;;;26.80;99.90;;;;;;4916878;29;20494;-68
2021/07/25 08:40:24;;;;;;;16.13;14.73;;;26.70;99.90;;;;;;4916649;29;20466;-68
2021/07/25 08:43:04;;;;;;;16.40;14.87;;;26.70;99.90;;;;;;4916366;29;20466;-68
2021/07/25 08:45:31;;;;;;;18.33;16.77;;;26.80;99.90;;;;;;4916010;29;20556;-68
2021/07/25 08:48:04;;;;;;;16.47;14.97;;;26.80;99.90;;;;;;4915059;29;21049;-68
2021/07/25 08:50:32;;;;;;;16.93;15.53;;;26.90;99.90;;;;;;4914624;29;20484;-68
2021/07/25 08:53:03;;;;;;;16.30;15.00;;;26.70;99.90;;;;;;4914386;29;20498;-68
2021/07/25 08:55:30;;;;;;;15.00;13.70;;;26.70;99.90;;;;;;4915544;29;20464;-69
2021/07/25 08:58:07;;;;;;;15.50;14.07;;;26.70;99.90;;;;;;4915804;29;20709;-69
2021/07/25 09:00:35;;;;;;;13.90;12.80;;;26.80;99.90;;;;;;4916419;29;20492;-69
2021/07/25 09:03:08;;;;;;;14.13;12.83;;;26.80;99.90;;;;;;4915359;29;20547;-70
2021/07/25 09:05:34;;;;;;;13.60;12.40;;;26.90;99.90;;;;;;4915828;29;20877;-70
2021/07/25 09:08:03;;;;;;;16.20;14.90;;;26.90;99.90;;;;;;4915825;29;20856;-70
2021/07/25 09:10:30;;;;;;;14.57;13.27;;;26.90;99.90;;;;;;4916260;29;20977;-70
2021/07/25 09:12:58;;;;;;;15.07;13.70;;;26.90;99.90;;;;;;4914923;29;20470;-70
2021/07/25 09:15:29;;;;;;;15.30;13.90;;;26.80;99.90;;;;;;4915995;29;20466;-69
2021/07/25 09:17:56;;;;;;;16.60;15.00;;;26.70;99.90;;;;;;4905354;29;20553;-69
2021/07/25 09:20:26;;;;;;;16.23;14.90;;;26.70;99.90;;;;;;4915813;29;20472;-69
2021/07/25 09:23:12;;;;;;;13.93;12.80;;;26.60;99.90;;;;;;4908656;29;20868;-69
2021/07/25 09:25:46;;;;;;;14.53;13.40;;;26.40;99.90;;;;;;4915368;29;20860;-69
2021/07/25 09:28:31;;;;;;;14.50;13.30;;;26.30;99.90;;;;;;4915679;29;20479;-70
2021/07/25 09:31:11;;;;;;;13.80;12.70;;;26.30;99.90;;;;;;4915256;29;21050;-69
2021/07/25 09:33:41;;;;;;;12.13;11.17;;;26.30;99.90;;;;;;4914914;29;20494;-69
2021/07/25 09:36:12;;;;;;;14.40;13.20;;;26.20;99.90;;;;;;4915268;29;20462;-69
2021/07/25 09:38:40;;;;;;;13.93;12.63;;;26.10;99.90;;;;;;4915993;29;20486;-68
2021/07/25 09:41:25;;;;;;;13.20;12.03;;;26.00;99.90;;;;;;4915432;29;20796;-69
2021/07/25 09:44:08;;;;;;;13.47;12.00;;;25.90;99.90;;;;;;4915469;29;20462;-68
2021/07/25 09:46:46;;;;;;;12.70;11.80;;;25.80;99.90;;;;;;4915389;29;20467;-69
2021/07/25 09:49:13;;;;;;;13.40;12.20;;;26.00;99.90;;;;;;4915452;29;20458;-69
2021/07/25 09:51:39;;;;;;;12.90;11.90;;;26.00;99.90;;;;;;4914924;29;20542;-68
2021/07/25 09:54:06;;;;;;;13.93;12.83;;;26.10;99.90;;;;;;4915047;29;20463;-69
2021/07/25 09:56:33;;;;;;;12.57;11.37;;;26.20;99.90;;;;;;4915599;29;20515;-69
2021/07/25 09:59:00;;;;;;;13.10;12.03;;;26.10;99.90;;;;;;4915480;29;20482;-69
2021/07/25 10:01:38;;;;;;;11.70;10.80;;;26.00;99.90;;;;;;4909533;29;20535;-69
2021/07/25 10:04:12;;;;;;;10.77;9.97;;;26.10;99.90;;;;;;4914727;29;20462;-69
2021/07/25 10:06:40;;;;;;;11.20;10.33;;;26.10;99.90;;;;;;4914939;29;20502;-69
2021/07/25 10:09:08;;;;;;;10.13;9.43;;;26.20;99.90;;;;;;4910852;29;20869;-70
2021/07/25 10:11:36;;;;;;;11.30;10.30;;;26.20;99.90;;;;;;4911665;29;20957;-69
2021/07/25 10:14:03;;;;;;;10.40;9.53;;;26.30;99.90;;;;;;4914964;29;20478;-70
2021/07/25 10:16:29;;;;;;;11.90;11.00;;;26.30;99.90;;;;;;4914618;29;20502;-69
2021/07/25 10:18:59;;;;;;;11.97;10.87;;;26.40;99.90;;;;;;4915350;29;20534;-69
2021/07/25 10:21:27;;;;;;;12.40;11.30;;;26.50;99.90;;;;;;4914817;29;20482;-69
2021/07/25 10:23:56;;;;;;;10.53;9.83;;;26.50;99.90;;;;;;4911208;29;20568;-69
2021/07/25 10:26:26;;;;;;;11.37;10.43;;;26.50;99.90;;;;;;4915029;29;20505;-68
2021/07/25 10:28:54;;;;;;;8.70;8.10;;;26.50;99.90;;;;;;4914206;29;20499;-65
2021/07/25 10:31:23;;;;;;;8.80;8.20;;;26.30;99.90;;;;;;4916858;29;20542;-68
2021/07/25 10:33:51;;;;;;;8.90;8.30;;;26.30;99.90;;;;;;4916267;29;20505;-68
2021/07/25 10:36:20;;;;;;;10.00;9.30;;;26.40;99.90;;;;;;4917826;29;20835;-68
2021/07/25 10:38:47;;;;;;;9.83;9.03;;;26.60;99.90;;;;;;4918846;29;20538;-69
2021/07/25 10:41:17;;;;;;;9.60;8.80;;;26.60;99.90;;;;;;4918406;29;20998;-69
2021/07/25 10:43:44;;;;;;;10.10;9.23;;;26.50;99.90;;;;;;4918467;29;20548;-69
2021/07/25 10:46:21;;;;;;;9.90;9.30;;;26.60;99.90;;;;;;4917458;29;20465;-69
2021/07/25 10:49:25;;;;;;;9.13;8.53;;;26.70;99.90;;;;;;4918637;29;20477;-69
2021/07/25 10:52:04;;;;;;;9.27;8.63;;;26.80;99.90;;;;;;4899149;29;20487;-68
2021/07/25 10:54:35;;;;;;;8.93;8.23;;;26.80;99.90;;;;;;4913384;29;20462;-71
2021/07/25 10:57:03;;;;;;;9.73;9.03;;;26.70;99.90;;;;;;4917472;29;20487;-69
2021/07/25 10:59:47;;;;;;;10.00;9.30;;;26.90;99.90;;;;;;4914505;29;20497;-68
2021/07/25 11:02:35;;;;;;;10.97;10.17;;;26.90;99.90;;;;;;4905787;29;20836;-69
2021/07/25 11:05:08;;;;;;;9.50;8.80;;;27.00;99.90;;;;;;4907750;29;20516;-69
2021/07/25 11:07:39;;;;;;;11.37;10.50;;;27.20;99.90;;;;;;4916901;29;20479;-69
2021/07/25 11:10:12;;;;;;;10.23;9.33;;;27.30;99.90;;;;;;4911904;29;20471;-68
2021/07/25 11:13:17;;;;;;;11.50;10.70;;;27.40;99.90;;;;;;4914881;29;20474;-70
2021/07/25 11:15:45;;;;;;;10.63;9.83;;;27.40;99.90;;;;;;4905716;29;20966;-69
2021/07/25 11:18:27;;;;;;;11.20;10.30;;;27.40;99.90;;;;;;4907678;29;20614;-69
2021/07/25 11:21:04;;;;;;;12.23;11.03;;;27.50;99.90;;;;;;4904149;29;20471;-68
2021/07/25 11:23:38;;;;;;;10.63;9.93;;;27.50;99.90;;;;;;4911973;29;20466;-71
2021/07/25 11:26:34;;;;;;;10.90;10.03;;;27.40;99.90;;;;;;4913369;29;20491;-69
2021/07/25 11:29:06;;;;;;;11.80;10.90;;;27.40;99.90;;;;;;4914032;29;20468;-69
2021/07/25 11:31:41;;;;;;;10.77;9.97;;;27.40;99.90;;;;;;4914167;29;20493;-71
2021/07/25 11:34:09;;;;;;;11.43;10.67;;;27.60;99.90;;;;;;4917319;29;20459;-69
2021/07/25 11:36:37;;;;;;;11.17;10.37;;;27.70;99.90;;;;;;4916577;29;20935;-70
2021/07/25 11:39:06;;;;;;;11.27;10.30;;;27.80;99.90;;;;;;4917841;29;20494;-69
2021/07/25 11:41:34;;;;;;;10.00;9.30;;;27.80;99.90;;;;;;4915986;29;20511;-67
2021/07/25 11:44:03;;;;;;;13.07;11.87;;;27.90;99.90;;;;;;4917083;29;20469;-68
2021/07/25 11:46:33;;;;;;;12.50;11.60;;;27.70;99.90;;;;;;4916944;29;20471;-66
2021/07/25 11:49:08;;;;;;;11.63;10.80;;;27.80;99.90;;;;;;4907893;29;20969;-67
2021/07/25 11:51:38;;;;;;;11.90;10.97;;;28.00;99.90;;;;;;4915783;29;20492;-68
2021/07/25 11:54:05;;;;;;;11.37;10.43;;;28.20;99.90;;;;;;4916960;29;20965;-67
2021/07/25 11:56:32;;;;;;;10.87;10.07;;;28.10;99.90;;;;;;4909327;29;20477;-66
2021/07/25 11:59:00;;;;;;;11.50;10.60;;;28.10;99.90;;;;;;4917102;29;20468;-66
2021/07/25 12:01:26;;;;;;;12.27;11.33;;;28.10;99.90;;;;;;4912742;29;20667;-68
2021/07/25 12:03:53;;;;;;;10.37;9.57;;;27.90;99.90;;;;;;4910079;29;20546;-67
2021/07/25 12:06:20;;;;;;;11.33;10.50;;;27.90;99.90;;;;;;4916061;29;20524;-67
2021/07/25 12:09:04;;;;;;;10.70;9.80;;;27.90;99.90;;;;;;4916975;29;20462;-67
2021/07/25 12:11:30;;;;;;;10.80;10.10;;;28.20;99.90;;;;;;4915867;29;20531;-70
2021/07/25 12:13:57;;;;;;;11.57;10.73;;;28.50;99.90;;;;;;4912544;29;20501;-69
2021/07/25 12:16:25;;;;;;;10.43;9.53;;;28.70;99.90;;;;;;4916785;29;20482;-70
2021/07/25 12:18:52;;;;;;;9.67;9.17;;;28.80;99.90;;;;;;4916339;29;20470;-69
2021/07/25 12:21:31;;;;;;;9.90;9.23;;;29.00;99.90;;;;;;4915348;29;20560;-69
2021/07/25 12:23:58;;;;;;;10.40;9.70;;;29.10;99.90;;;;;;4905613;29;20513;-70
2021/07/25 12:26:39;;;;;;;11.63;10.63;;;29.00;99.90;;;;;;4909611;29;20526;-70
2021/07/25 12:29:36;;;;;;;10.87;10.17;;;29.00;99.90;;;;;;4916654;29;20463;-70
2021/07/25 12:32:22;;;;;;;8.30;7.80;;;28.90;99.90;;;;;;4915693;29;20486;-69
2021/07/25 12:34:49;;;;;;;9.60;8.57;;;28.80;99.90;;;;;;4916968;29;20473;-69
2021/07/25 12:37:26;;;;;;;8.83;8.23;;;28.80;99.90;;;;;;4915447;29;20473;-68
2021/07/25 12:40:10;;;;;;;9.47;8.67;;;28.80;99.90;;;;;;4916250;29;20508;-68
2021/07/25 12:42:44;;;;;;;9.50;8.70;;;28.70;99.90;;;;;;4907212;29;20468;-68
2021/07/25 12:45:30;;;;;;;8.97;8.37;;;28.60;99.90;;;;;;4906824;29;20469;-69
2021/07/25 12:48:14;;;;;;;8.40;7.90;;;28.60;99.90;;;;;;4915624;29;21024;-68
2021/07/25 12:50:51;;;;;;;8.67;8.07;;;28.50;99.90;;;;;;4911802;29;20500;-69
2021/07/25 12:53:19;;;;;;;8.23;7.50;;;28.50;99.90;;;;;;4915052;29;20463;-68
2021/07/25 12:55:47;;;;;;;8.93;8.07;;;28.40;99.90;;;;;;4915329;29;20902;-68
2021/07/25 12:58:15;;;;;;;9.57;8.87;;;28.40;99.90;;;;;;4914421;29;20527;-68
2021/07/25 13:03:48;;;;;;;9.87;9.07;;;28.50;99.90;;;;;;4895199;29;20546;-66
2021/07/25 13:06:16;;;;;;;8.00;7.50;;;28.50;99.90;;;;;;4915555;29;20469;-67
2021/07/25 13:08:44;;;;;;;8.40;7.80;;;28.50;99.90;;;;;;4913244;29;20557;-67
2021/07/25 13:11:13;;;;;;;8.00;7.40;;;28.60;99.90;;;;;;4911707;29;21005;-67
2021/07/25 13:13:43;;;;;;;8.37;7.73;;;28.80;99.90;;;;;;4913881;29;20548;-68
2021/07/25 13:16:11;;;;;;;9.33;8.73;;;29.00;99.90;;;;;;4912960;29;21014;-70
2021/07/25 13:18:39;;;;;;;12.80;11.80;;;29.10;99.90;;;;;;4914418;29;20484;-70
2021/07/25 13:21:06;;;;;;;13.70;12.70;;;29.20;99.90;;;;;;4914886;29;20576;-67
2021/07/25 13:23:32;;;;;;;12.70;11.80;;;29.20;99.90;;;;;;4899506;29;20955;-70
2021/07/25 13:25:59;;;;;;;12.80;11.80;;;29.20;99.90;;;;;;4913463;29;20469;-70
2021/07/25 13:28:26;;;;;;;13.40;12.37;;;29.30;99.90;;;;;;4915609;29;20478;-70
2021/07/25 13:30:54;;;;;;;12.67;11.67;;;29.30;99.90;;;;;;4911706;29;20954;-70
2021/07/25 13:33:20;;;;;;;12.53;11.50;;;29.00;99.90;;;;;;4914227;29;20478;-70
2021/07/25 13:35:49;;;;;;;9.50;8.80;;;29.00;99.90;;;;;;4915218;29;20637;-70
2021/07/25 13:38:16;;;;;;;9.23;8.60;;;29.00;99.90;;;;;;4914278;29;20496;-70
2021/07/25 13:40:42;;;;;;;8.50;7.80;;;29.00;99.90;;;;;;4914767;29;20502;-71
2021/07/25 13:43:11;;;;;;;8.67;8.00;;;29.20;99.90;;;;;;4902801;29;20951;-70
2021/07/25 13:45:40;;;;;;;12.33;11.33;;;29.20;99.60;;;;;;4915126;29;20471;-70
2021/07/25 13:48:09;;;;;;;12.77;11.87;;;29.20;99.90;;;;;;4909261;29;20475;-71
2021/07/25 13:50:36;;;;;;;14.00;12.90;;;29.20;99.90;;;;;;4908221;29;20769;-70
2021/07/25 13:53:04;;;;;;;12.70;11.80;;;29.10;99.90;;;;;;4915054;29;20545;-71
2021/07/25 13:55:31;;;;;;;11.70;10.90;;;28.90;99.90;;;;;;4915402;29;20476;-71
2021/07/25 13:57:58;;;;;;;10.43;9.63;;;29.10;99.90;;;;;;4914069;29;20486;-68
2021/07/25 14:00:25;;;;;;;11.60;10.80;;;29.40;99.90;;;;;;4915269;29;20495;-68
2021/07/25 14:02:51;;;;;;;12.80;11.80;;;29.30;99.90;;;;;;4906882;29;20618;-70
2021/07/25 14:05:19;;;;;;;13.10;12.10;;;29.40;99.90;;;;;;4911949;29;20499;-70
2021/07/25 14:07:46;;;;;;;13.07;12.13;;;29.50;99.90;;;;;;4918610;29;20827;-70
2021/07/25 14:10:13;;;;;;;11.50;10.60;;;29.40;99.90;;;;;;4918631;29;20462;-70
2021/07/25 14:12:39;;;;;;;13.20;12.20;;;29.30;99.90;;;;;;4918509;29;20863;-70
2021/07/25 14:15:07;;;;;;;12.50;11.50;;;29.10;99.90;;;;;;4919332;29;20527;-70
2021/07/25 14:17:36;;;;;;;12.77;11.80;;;29.10;99.90;;;;;;4923285;29;20527;-70
2021/07/25 14:20:02;;;;;;;13.37;12.30;;;29.10;99.90;;;;;;4920039;29;20489;-70
2021/07/25 14:22:30;;;;;;;12.07;11.20;;;29.00;99.90;;;;;;4918319;29;20541;-70
2021/07/25 14:24:57;;;;;;;13.63;12.50;;;29.00;99.90;;;;;;4920323;29;20478;-70
2021/07/25 14:27:24;;;;;;;12.67;11.73;;;29.10;99.90;;;;;;4928317;29;20642;-69
2021/07/25 14:29:51;;;;;;;14.20;12.87;;;29.20;99.90;;;;;;4919077;29;20954;-70
2021/07/25 14:32:17;;;;;;;13.07;12.07;;;29.30;99.90;;;;;;4916889;29;20491;-69
2021/07/25 14:34:44;;;;;;;12.70;11.70;;;29.40;99.90;;;;;;4911772;29;20486;-69
2021/07/25 14:37:10;;;;;;;12.30;11.50;;;29.40;99.90;;;;;;4910943;29;20534;-71
2021/07/25 14:39:38;;;;;;;12.90;11.90;;;29.50;99.90;;;;;;4920221;29;20528;-70
2021/07/25 14:42:05;;;;;;;13.83;12.83;;;29.70;99.90;;;;;;4917375;29;20878;-71
2021/07/25 14:44:32;;;;;;;12.40;11.50;;;29.80;99.90;;;;;;4915461;29;20537;-71
2021/07/25 14:46:58;;;;;;;11.70;10.80;;;29.80;99.90;;;;;;4915092;29;20479;-71
2021/07/25 14:49:25;;;;;;;9.40;8.60;;;29.70;99.90;;;;;;4918457;29;20867;-72
2021/07/25 14:51:51;;;;;;;9.23;8.60;;;29.70;99.90;;;;;;4916202;29;20886;-71
2021/07/25 14:54:18;;;;;;;9.47;8.77;;;29.90;99.90;;;;;;4917333;29;20641;-70
2021/07/25 14:56:46;;;;;;;9.40;8.80;;;29.90;99.90;;;;;;4918570;29;20472;-72
2021/07/25 14:59:13;;;;;;;9.50;8.80;;;29.90;99.90;;;;;;4918241;29;20474;-71
2021/07/25 15:01:41;;;;;;;9.60;8.80;;;30.00;99.90;;;;;;4916951;29;20511;-71
2021/07/25 15:04:08;;;;;;;9.97;9.37;;;29.70;99.90;;;;;;4909619;29;20473;-71
2021/07/25 15:06:35;;;;;;;9.60;8.90;;;29.60;99.90;;;;;;4917463;29;20835;-70
2021/07/25 15:09:02;;;;;;;10.10;9.40;;;29.70;99.90;;;;;;4917931;29;20883;-71
2021/07/25 15:11:28;;;;;;;9.63;8.93;;;29.80;99.90;;;;;;4911590;29;20912;-71
2021/07/25 15:13:56;;;;;;;11.00;10.00;;;29.90;99.90;;;;;;4917605;29;20475;-70
2021/07/25 15:16:24;;;;;;;9.73;8.97;;;29.80;99.90;;;;;;4916003;29;20520;-71
2021/07/25 15:18:51;;;;;;;10.40;9.67;;;29.60;99.90;;;;;;4917988;29;20523;-70
2021/07/25 15:21:18;;;;;;;9.93;9.13;;;29.50;99.90;;;;;;4917406;29;20505;-71
2021/07/25 15:23:45;;;;;;;10.40;9.60;;;29.50;99.90;;;;;;4900877;29;20482;-70
2021/07/25 15:26:13;;;;;;;10.03;9.33;;;29.50;99.90;;;;;;4916073;29;20502;-70
2021/07/25 15:28:40;;;;;;;11.03;10.23;;;29.40;99.90;;;;;;4917712;29;20523;-70
2021/07/25 15:31:08;;;;;;;10.33;9.63;;;29.50;99.90;;;;;;4916539;29;20490;-71
2021/07/25 15:33:34;;;;;;;10.43;9.43;;;29.50;99.90;;;;;;4908835;29;20985;-71
2021/07/25 15:36:02;;;;;;;9.90;9.17;;;29.50;99.90;;;;;;4898472;29;20501;-70
2021/07/25 15:38:29;;;;;;;10.73;10.03;;;29.40;99.90;;;;;;4911559;29;20547;-71
2021/07/25 15:40:56;;;;;;;10.27;9.57;;;29.30;99.90;;;;;;4916326;29;20487;-71
2021/07/25 15:43:22;;;;;;;10.33;9.57;;;29.30;99.90;;;;;;4914242;29;20535;-70
2021/07/25 15:45:49;;;;;;;9.40;8.80;;;29.10;99.90;;;;;;4912982;29;20993;-70
2021/07/25 15:48:17;;;;;;;10.70;9.87;;;29.00;99.90;;;;;;4915308;29;20474;-71
2021/07/25 15:50:46;;;;;;;11.77;10.87;;;28.90;99.90;;;;;;4916143;29;20494;-69
2021/07/25 15:53:13;;;;;;;9.90;9.20;;;28.80;99.90;;;;;;4916878;29;20828;-69
2021/07/25 15:55:39;;;;;;;11.30;10.50;;;28.70;99.90;;;;;;4917167;29;20498;-68
2021/07/25 15:58:06;;;;;;;10.97;10.07;;;28.80;99.90;;;;;;4917345;29;20854;-69
2021/07/25 16:00:33;;;;;;;11.50;10.70;;;28.80;99.90;;;;;;4916341;29;20628;-69
2021/07/25 16:03:00;;;;;;;11.03;10.00;;;28.90;99.90;;;;;;4904826;29;20522;-68
2021/07/25 16:05:28;;;;;;;12.10;11.20;;;29.00;99.90;;;;;;4916554;29;20961;-69
2021/07/25 16:07:56;;;;;;;11.27;10.37;;;29.10;99.90;;;;;;4917116;29;20997;-68
2021/07/25 16:10:23;;;;;;;11.83;10.93;;;29.20;99.90;;;;;;4916691;29;20885;-68
2021/07/25 16:12:50;;;;;;;11.93;10.83;;;29.10;99.90;;;;;;4916358;29;20476;-68
2021/07/25 16:15:17;;;;;;;10.70;10.00;;;29.00;99.90;;;;;;4916554;29;20576;-67
2021/07/25 16:17:44;;;;;;;11.00;10.00;;;29.00;99.90;;;;;;4916194;29;20474;-66
2021/07/25 16:20:11;;;;;;;10.63;9.83;;;28.80;99.90;;;;;;4916383;29;20480;-67
2021/07/25 16:22:38;;;;;;;10.57;9.87;;;28.90;99.90;;;;;;4915646;29;20533;-67
2021/07/25 16:25:06;;;;;;;11.60;10.60;;;29.00;99.90;;;;;;4916414;29;20875;-68
2021/07/25 16:27:33;;;;;;;11.27;10.47;;;29.00;99.90;;;;;;4916057;29;20477;-67
2021/07/25 16:29:59;;;;;;;10.60;9.80;;;29.00;99.90;;;;;;4915637;29;20533;-68
2021/07/25 16:32:27;;;;;;;10.13;9.33;;;29.10;99.90;;;;;;4914556;29;20501;-67
2021/07/25 16:34:53;;;;;;;10.53;9.73;;;29.00;99.90;;;;;;4916533;29;20834;-68
2021/07/25 16:37:20;;;;;;;11.10;10.27;;;29.10;99.90;;;;;;4915661;29;20468;-67
2021/07/25 16:39:48;;;;;;;11.13;10.30;;;29.10;99.90;;;;;;4916834;29;20992;-69
2021/07/25 16:42:20;;;;;;;10.60;9.80;;;29.10;99.90;;;;;;4910639;29;20497;-67
2021/07/25 16:44:47;;;;;;;10.80;9.93;;;29.20;99.90;;;;;;4916041;29;20469;-68